sensor_id;sensor_type;location;lat;lon;timestamp;P1;durP1;ratioP1;P2;durP2;ratioP2
19621;SDS011;9958;33.196;-97.114;2023-02-28T00:01:27;10.40;;;1.33;;
19621;SDS011;9958;33.196;-97.114;2023-02-28T00:03:56;15.40;;;1.40;;
19621;SDS011;9958;33.196;-97.114;2023-02-28T00:06:26;10.15;;;1.88;;
19621;SDS011;9958;33.196;-97.114;2023-02-28T00:08:55;9.77;;;1.40;;
19621;SDS011;9958;33.196;-97.114;2023-02-28T00:11:23;11.90;;;1.50;;
19621;SDS011;9958;33.196;-97.114;2023-02-28T00:13:51;4.80;;;1.02;;
19621;SDS011;9958;33.196;-97.114;2023-02-28T00:16:21;8.55;;;1.45;;
19621;SDS011;9958;33.196;-97.114;2023-02-28T00:18:50;13.32;;;1.65;;
19621;SDS011;9958;33.196;-97.114;2023-02-28T00:21:18;13.45;;;1.90;;
19621;SDS011;9958;33.196;-97.114;2023-02-28T00:23:49;7.47;;;1.50;;
19621;SDS011;9958;33.196;-97.114;2023-02-28T00:26:17;6.05;;;1.27;;
19621;SDS011;9958;33.196;-97.114;2023-02-28T00:28:45;12.57;;;2.10;;
19621;SDS011;9958;33.196;-97.114;2023-02-28T00:31:14;9.07;;;1.70;;
19621;SDS011;9958;33.196;-97.114;2023-02-28T00:33:42;9.32;;;2.03;;
19621;SDS011;9958;33.196;-97.114;2023-02-28T00:36:11;22.08;;;2.78;;
19621;SDS011;9958;33.196;-97.114;2023-02-28T00:38:39;28.15;;;2.85;;
19621;SDS011;9958;33.196;-97.114;2023-02-28T00:41:09;13.07;;;2.78;;
19621;SDS011;9958;33.196;-97.114;2023-02-28T00:43:38;17.85;;;2.67;;
19621;SDS011;9958;33.196;-97.114;2023-02-28T00:46:06;12.45;;;2.33;;
19621;SDS011;9958;33.196;-97.114;2023-02-28T00:48:35;19.63;;;2.20;;
19621;SDS011;9958;33.196;-97.114;2023-02-28T00:51:03;19.98;;;1.88;;
19621;SDS011;9958;33.196;-97.114;2023-02-28T00:53:32;10.68;;;1.65;;
19621;SDS011;9958;33.196;-97.114;2023-02-28T00:56:00;6.82;;;1.30;;
19621;SDS011;9958;33.196;-97.114;2023-02-28T00:58:30;15.40;;;2.17;;
19621;SDS011;9958;33.196;-97.114;2023-02-28T01:00:59;12.40;;;1.85;;
19621;SDS011;9958;33.196;-97.114;2023-02-28T01:03:27;11.23;;;2.53;;
19621;SDS011;9958;33.196;-97.114;2023-02-28T01:05:56;19.10;;;2.15;;
19621;SDS011;9958;33.196;-97.114;2023-02-28T01:08:24;13.25;;;2.08;;
19621;SDS011;9958;33.196;-97.114;2023-02-28T01:10:53;11.75;;;2.00;;
19621;SDS011;9958;33.196;-97.114;2023-02-28T01:13:21;15.13;;;2.45;;
19621;SDS011;9958;33.196;-97.114;2023-02-28T01:15:53;12.30;;;1.88;;
19621;SDS011;9958;33.196;-97.114;2023-02-28T01:18:22;15.40;;;2.13;;
19621;SDS011;9958;33.196;-97.114;2023-02-28T01:20:51;6.07;;;2.38;;
19621;SDS011;9958;33.196;-97.114;2023-02-28T01:23:19;8.10;;;1.50;;
19621;SDS011;9958;33.196;-97.114;2023-02-28T01:25:48;18.88;;;2.38;;
19621;SDS011;9958;33.196;-97.114;2023-02-28T01:28:17;16.15;;;2.00;;
19621;SDS011;9958;33.196;-97.114;2023-02-28T01:30:47;9.63;;;1.67;;
19621;SDS011;9958;33.196;-97.114;2023-02-28T01:33:17;10.82;;;2.03;;
19621;SDS011;9958;33.196;-97.114;2023-02-28T01:35:46;14.95;;;2.13;;
19621;SDS011;9958;33.196;-97.114;2023-02-28T01:38:14;7.35;;;2.30;;
19621;SDS011;9958;33.196;-97.114;2023-02-28T01:40:42;11.95;;;2.05;;
19621;SDS011;9958;33.196;-97.114;2023-02-28T01:43:12;8.85;;;1.60;;
19621;SDS011;9958;33.196;-97.114;2023-02-28T01:45:48;11.15;;;1.90;;
19621;SDS011;9958;33.196;-97.114;2023-02-28T01:48:18;12.07;;;1.83;;
19621;SDS011;9958;33.196;-97.114;2023-02-28T01:50:48;12.93;;;1.95;;
19621;SDS011;9958;33.196;-97.114;2023-02-28T01:53:18;11.70;;;2.05;;
19621;SDS011;9958;33.196;-97.114;2023-02-28T01:55:50;8.77;;;2.20;;
19621;SDS011;9958;33.196;-97.114;2023-02-28T01:58:20;9.35;;;2.03;;
19621;SDS011;9958;33.196;-97.114;2023-02-28T02:00:49;4.47;;;1.50;;
19621;SDS011;9958;33.196;-97.114;2023-02-28T02:03:21;13.40;;;2.03;;
19621;SDS011;9958;33.196;-97.114;2023-02-28T02:05:50;10.50;;;1.63;;
19621;SDS011;9958;33.196;-97.114;2023-02-28T02:08:19;10.15;;;2.08;;
19621;SDS011;9958;33.196;-97.114;2023-02-28T02:10:50;13.43;;;1.98;;
19621;SDS011;9958;33.196;-97.114;2023-02-28T02:13:27;10.60;;;1.98;;
19621;SDS011;9958;33.196;-97.114;2023-02-28T02:16:08;10.45;;;1.70;;
19621;SDS011;9958;33.196;-97.114;2023-02-28T02:18:46;12.73;;;1.45;;
19621;SDS011;9958;33.196;-97.114;2023-02-28T02:24:45;12.68;;;1.45;;
19621;SDS011;9958;33.196;-97.114;2023-02-28T02:27:26;5.60;;;1.77;;
19621;SDS011;9958;33.196;-97.114;2023-02-28T02:30:20;13.38;;;1.50;;
19621;SDS011;9958;33.196;-97.114;2023-02-28T02:36:11;9.35;;;1.80;;
19621;SDS011;9958;33.196;-97.114;2023-02-28T02:38:46;10.43;;;1.83;;
19621;SDS011;9958;33.196;-97.114;2023-02-28T02:41:19;12.00;;;1.83;;
19621;SDS011;9958;33.196;-97.114;2023-02-28T02:43:54;13.27;;;2.03;;
19621;SDS011;9958;33.196;-97.114;2023-02-28T02:46:29;11.70;;;1.70;;
19621;SDS011;9958;33.196;-97.114;2023-02-28T02:49:00;7.88;;;1.88;;
19621;SDS011;9958;33.196;-97.114;2023-02-28T02:51:34;10.57;;;2.05;;
19621;SDS011;9958;33.196;-97.114;2023-02-28T02:54:08;11.77;;;1.65;;
19621;SDS011;9958;33.196;-97.114;2023-02-28T02:56:41;13.18;;;2.10;;
19621;SDS011;9958;33.196;-97.114;2023-02-28T02:59:12;6.68;;;2.13;;
19621;SDS011;9958;33.196;-97.114;2023-02-28T03:01:46;11.43;;;2.58;;
19621;SDS011;9958;33.196;-97.114;2023-02-28T03:04:19;10.63;;;2.30;;
19621;SDS011;9958;33.196;-97.114;2023-02-28T03:06:51;5.88;;;1.60;;
19621;SDS011;9958;33.196;-97.114;2023-02-28T03:09:21;9.18;;;1.63;;
19621;SDS011;9958;33.196;-97.114;2023-02-28T03:11:49;6.43;;;1.40;;
19621;SDS011;9958;33.196;-97.114;2023-02-28T03:14:23;10.70;;;1.77;;
19621;SDS011;9958;33.196;-97.114;2023-02-28T03:17:06;11.40;;;2.10;;
19621;SDS011;9958;33.196;-97.114;2023-02-28T03:19:55;7.32;;;1.33;;
19621;SDS011;9958;33.196;-97.114;2023-02-28T03:22:42;10.60;;;1.58;;
19621;SDS011;9958;33.196;-97.114;2023-02-28T03:25:18;8.93;;;1.50;;
19621;SDS011;9958;33.196;-97.114;2023-02-28T03:27:55;4.13;;;1.58;;
19621;SDS011;9958;33.196;-97.114;2023-02-28T03:30:33;10.57;;;2.05;;
19621;SDS011;9958;33.196;-97.114;2023-02-28T03:33:07;4.95;;;1.45;;
19621;SDS011;9958;33.196;-97.114;2023-02-28T03:35:41;6.18;;;1.15;;
19621;SDS011;9958;33.196;-97.114;2023-02-28T03:38:15;5.13;;;1.80;;
19621;SDS011;9958;33.196;-97.114;2023-02-28T03:40:48;12.95;;;1.85;;
19621;SDS011;9958;33.196;-97.114;2023-02-28T03:43:20;1.50;;;1.05;;
19621;SDS011;9958;33.196;-97.114;2023-02-28T03:45:51;6.40;;;1.20;;
19621;SDS011;9958;33.196;-97.114;2023-02-28T03:48:22;4.78;;;1.20;;
19621;SDS011;9958;33.196;-97.114;2023-02-28T03:50:55;10.20;;;1.60;;
19621;SDS011;9958;33.196;-97.114;2023-02-28T03:53:29;12.82;;;1.65;;
19621;SDS011;9958;33.196;-97.114;2023-02-28T03:56:02;9.43;;;1.75;;
19621;SDS011;9958;33.196;-97.114;2023-02-28T03:58:37;10.57;;;1.90;;
19621;SDS011;9958;33.196;-97.114;2023-02-28T04:01:09;5.95;;;1.50;;
19621;SDS011;9958;33.196;-97.114;2023-02-28T04:03:40;10.55;;;2.55;;
19621;SDS011;9958;33.196;-97.114;2023-02-28T04:06:13;4.07;;;1.38;;
19621;SDS011;9958;33.196;-97.114;2023-02-28T04:08:45;19.33;;;1.63;;
19621;SDS011;9958;33.196;-97.114;2023-02-28T04:11:17;11.93;;;1.45;;
19621;SDS011;9958;33.196;-97.114;2023-02-28T04:13:49;3.67;;;1.38;;
19621;SDS011;9958;33.196;-97.114;2023-02-28T04:16:17;10.65;;;1.70;;
19621;SDS011;9958;33.196;-97.114;2023-02-28T04:18:46;6.10;;;1.50;;
19621;SDS011;9958;33.196;-97.114;2023-02-28T04:21:14;7.60;;;2.28;;
19621;SDS011;9958;33.196;-97.114;2023-02-28T04:23:47;9.27;;;1.83;;
19621;SDS011;9958;33.196;-97.114;2023-02-28T04:26:15;10.98;;;2.10;;
19621;SDS011;9958;33.196;-97.114;2023-02-28T04:28:44;4.32;;;1.27;;
19621;SDS011;9958;33.196;-97.114;2023-02-28T04:31:12;6.30;;;1.40;;
19621;SDS011;9958;33.196;-97.114;2023-02-28T04:33:40;9.85;;;2.28;;
19621;SDS011;9958;33.196;-97.114;2023-02-28T04:36:09;14.23;;;1.98;;
19621;SDS011;9958;33.196;-97.114;2023-02-28T04:38:38;7.63;;;1.83;;
19621;SDS011;9958;33.196;-97.114;2023-02-28T04:41:08;4.80;;;1.73;;
19621;SDS011;9958;33.196;-97.114;2023-02-28T04:43:37;11.35;;;1.80;;
19621;SDS011;9958;33.196;-97.114;2023-02-28T04:46:05;5.85;;;1.73;;
19621;SDS011;9958;33.196;-97.114;2023-02-28T04:48:34;7.05;;;1.65;;
19621;SDS011;9958;33.196;-97.114;2023-02-28T04:51:04;8.88;;;2.25;;
19621;SDS011;9958;33.196;-97.114;2023-02-28T04:53:34;5.57;;;1.55;;
19621;SDS011;9958;33.196;-97.114;2023-02-28T04:56:02;10.85;;;2.47;;
19621;SDS011;9958;33.196;-97.114;2023-02-28T04:58:33;13.52;;;2.75;;
19621;SDS011;9958;33.196;-97.114;2023-02-28T05:01:02;5.05;;;1.65;;
19621;SDS011;9958;33.196;-97.114;2023-02-28T05:03:38;5.95;;;1.58;;
19621;SDS011;9958;33.196;-97.114;2023-02-28T05:06:07;10.77;;;1.83;;
19621;SDS011;9958;33.196;-97.114;2023-02-28T05:08:35;10.02;;;2.28;;
19621;SDS011;9958;33.196;-97.114;2023-02-28T05:11:05;12.65;;;1.70;;
19621;SDS011;9958;33.196;-97.114;2023-02-28T05:13:37;8.40;;;1.48;;
19621;SDS011;9958;33.196;-97.114;2023-02-28T05:16:05;7.53;;;1.50;;
19621;SDS011;9958;33.196;-97.114;2023-02-28T05:18:34;12.23;;;1.83;;
19621;SDS011;9958;33.196;-97.114;2023-02-28T05:21:02;10.38;;;1.40;;
19621;SDS011;9958;33.196;-97.114;2023-02-28T05:23:31;11.90;;;2.63;;
19621;SDS011;9958;33.196;-97.114;2023-02-28T05:25:59;16.10;;;1.35;;
19621;SDS011;9958;33.196;-97.114;2023-02-28T05:28:28;8.25;;;2.08;;
19621;SDS011;9958;33.196;-97.114;2023-02-28T05:30:58;5.60;;;1.88;;
19621;SDS011;9958;33.196;-97.114;2023-02-28T05:33:26;5.95;;;0.98;;
19621;SDS011;9958;33.196;-97.114;2023-02-28T05:35:54;7.82;;;1.80;;
19621;SDS011;9958;33.196;-97.114;2023-02-28T05:38:23;7.43;;;1.45;;
19621;SDS011;9958;33.196;-97.114;2023-02-28T05:40:52;14.10;;;2.40;;
19621;SDS011;9958;33.196;-97.114;2023-02-28T05:43:20;6.03;;;1.90;;
19621;SDS011;9958;33.196;-97.114;2023-02-28T05:45:49;5.40;;;1.73;;
19621;SDS011;9958;33.196;-97.114;2023-02-28T05:48:18;9.00;;;1.55;;
19621;SDS011;9958;33.196;-97.114;2023-02-28T05:50:47;8.48;;;1.38;;
19621;SDS011;9958;33.196;-97.114;2023-02-28T05:53:15;7.43;;;1.65;;
19621;SDS011;9958;33.196;-97.114;2023-02-28T05:55:43;7.43;;;1.48;;
19621;SDS011;9958;33.196;-97.114;2023-02-28T05:58:12;4.70;;;1.45;;
19621;SDS011;9958;33.196;-97.114;2023-02-28T06:00:40;12.48;;;2.20;;
19621;SDS011;9958;33.196;-97.114;2023-02-28T06:03:08;11.32;;;1.90;;
19621;SDS011;9958;33.196;-97.114;2023-02-28T06:05:38;7.72;;;1.75;;
19621;SDS011;9958;33.196;-97.114;2023-02-28T06:08:06;8.35;;;1.50;;
19621;SDS011;9958;33.196;-97.114;2023-02-28T06:10:35;15.02;;;2.17;;
19621;SDS011;9958;33.196;-97.114;2023-02-28T06:13:03;8.07;;;1.42;;
19621;SDS011;9958;33.196;-97.114;2023-02-28T06:15:32;8.45;;;1.48;;
19621;SDS011;9958;33.196;-97.114;2023-02-28T06:18:00;10.88;;;1.50;;
19621;SDS011;9958;33.196;-97.114;2023-02-28T06:20:29;10.30;;;1.80;;
19621;SDS011;9958;33.196;-97.114;2023-02-28T06:22:59;9.38;;;1.40;;
19621;SDS011;9958;33.196;-97.114;2023-02-28T06:25:28;9.20;;;1.75;;
19621;SDS011;9958;33.196;-97.114;2023-02-28T06:27:56;5.13;;;1.20;;
19621;SDS011;9958;33.196;-97.114;2023-02-28T06:30:24;4.93;;;1.08;;
19621;SDS011;9958;33.196;-97.114;2023-02-28T06:32:53;8.55;;;1.67;;
19621;SDS011;9958;33.196;-97.114;2023-02-28T06:35:22;10.93;;;1.42;;
19621;SDS011;9958;33.196;-97.114;2023-02-28T06:37:50;8.18;;;1.92;;
19621;SDS011;9958;33.196;-97.114;2023-02-28T06:40:20;8.00;;;2.22;;
19621;SDS011;9958;33.196;-97.114;2023-02-28T06:42:48;6.47;;;1.63;;
19621;SDS011;9958;33.196;-97.114;2023-02-28T06:45:18;6.95;;;1.30;;
19621;SDS011;9958;33.196;-97.114;2023-02-28T06:47:47;8.23;;;1.92;;
19621;SDS011;9958;33.196;-97.114;2023-02-28T06:50:17;7.05;;;1.92;;
19621;SDS011;9958;33.196;-97.114;2023-02-28T06:52:46;8.38;;;2.08;;
19621;SDS011;9958;33.196;-97.114;2023-02-28T06:55:20;9.13;;;1.50;;
19621;SDS011;9958;33.196;-97.114;2023-02-28T06:57:49;7.30;;;1.42;;
19621;SDS011;9958;33.196;-97.114;2023-02-28T07:00:17;7.72;;;1.67;;
19621;SDS011;9958;33.196;-97.114;2023-02-28T07:02:46;12.38;;;1.55;;
19621;SDS011;9958;33.196;-97.114;2023-02-28T07:05:14;6.18;;;1.55;;
19621;SDS011;9958;33.196;-97.114;2023-02-28T07:07:43;1.58;;;1.00;;
19621;SDS011;9958;33.196;-97.114;2023-02-28T07:10:12;8.77;;;1.52;;
19621;SDS011;9958;33.196;-97.114;2023-02-28T07:12:43;11.00;;;1.70;;
19621;SDS011;9958;33.196;-97.114;2023-02-28T07:15:12;4.97;;;1.40;;
19621;SDS011;9958;33.196;-97.114;2023-02-28T07:17:40;8.68;;;1.63;;
19621;SDS011;9958;33.196;-97.114;2023-02-28T07:20:09;7.53;;;1.77;;
19621;SDS011;9958;33.196;-97.114;2023-02-28T07:22:38;8.18;;;1.63;;
19621;SDS011;9958;33.196;-97.114;2023-02-28T07:25:07;7.72;;;1.65;;
19621;SDS011;9958;33.196;-97.114;2023-02-28T07:27:36;11.38;;;1.67;;
19621;SDS011;9958;33.196;-97.114;2023-02-28T07:30:07;4.47;;;1.13;;
19621;SDS011;9958;33.196;-97.114;2023-02-28T07:32:36;9.25;;;1.35;;
19621;SDS011;9958;33.196;-97.114;2023-02-28T07:35:04;15.95;;;1.92;;
19621;SDS011;9958;33.196;-97.114;2023-02-28T07:37:33;7.63;;;1.30;;
19621;SDS011;9958;33.196;-97.114;2023-02-28T07:40:02;5.05;;;2.50;;
19621;SDS011;9958;33.196;-97.114;2023-02-28T07:42:33;7.43;;;1.60;;
19621;SDS011;9958;33.196;-97.114;2023-02-28T07:45:02;6.63;;;1.70;;
19621;SDS011;9958;33.196;-97.114;2023-02-28T07:47:33;9.88;;;2.03;;
19621;SDS011;9958;33.196;-97.114;2023-02-28T07:50:01;7.45;;;1.38;;
19621;SDS011;9958;33.196;-97.114;2023-02-28T07:52:30;5.40;;;1.25;;
19621;SDS011;9958;33.196;-97.114;2023-02-28T07:54:59;6.20;;;1.55;;
19621;SDS011;9958;33.196;-97.114;2023-02-28T07:57:27;9.00;;;1.58;;
19621;SDS011;9958;33.196;-97.114;2023-02-28T07:59:55;9.80;;;1.50;;
19621;SDS011;9958;33.196;-97.114;2023-02-28T08:02:24;8.77;;;1.38;;
19621;SDS011;9958;33.196;-97.114;2023-02-28T08:04:54;6.45;;;1.45;;
19621;SDS011;9958;33.196;-97.114;2023-02-28T08:07:22;7.30;;;1.70;;
19621;SDS011;9958;33.196;-97.114;2023-02-28T08:09:50;7.40;;;1.52;;
19621;SDS011;9958;33.196;-97.114;2023-02-28T08:12:19;6.40;;;1.60;;
19621;SDS011;9958;33.196;-97.114;2023-02-28T08:14:47;8.38;;;1.40;;
19621;SDS011;9958;33.196;-97.114;2023-02-28T08:17:16;7.35;;;1.50;;
19621;SDS011;9958;33.196;-97.114;2023-02-28T08:19:45;11.85;;;1.27;;
19621;SDS011;9958;33.196;-97.114;2023-02-28T08:22:15;8.60;;;1.60;;
19621;SDS011;9958;33.196;-97.114;2023-02-28T08:24:43;5.35;;;1.75;;
19621;SDS011;9958;33.196;-97.114;2023-02-28T08:27:11;3.42;;;1.77;;
19621;SDS011;9958;33.196;-97.114;2023-02-28T08:29:40;8.50;;;1.48;;
19621;SDS011;9958;33.196;-97.114;2023-02-28T08:32:08;3.35;;;1.10;;
19621;SDS011;9958;33.196;-97.114;2023-02-28T08:34:38;8.98;;;1.55;;
19621;SDS011;9958;33.196;-97.114;2023-02-28T08:37:07;7.75;;;1.77;;
19621;SDS011;9958;33.196;-97.114;2023-02-28T08:39:37;2.28;;;1.08;;
19621;SDS011;9958;33.196;-97.114;2023-02-28T08:42:05;8.30;;;1.25;;
19621;SDS011;9958;33.196;-97.114;2023-02-28T08:44:33;5.93;;;1.30;;
19621;SDS011;9958;33.196;-97.114;2023-02-28T08:47:02;5.80;;;1.90;;
19621;SDS011;9958;33.196;-97.114;2023-02-28T08:49:30;7.55;;;1.38;;
19621;SDS011;9958;33.196;-97.114;2023-02-28T08:51:58;5.18;;;1.40;;
19621;SDS011;9958;33.196;-97.114;2023-02-28T08:54:27;7.15;;;1.42;;
19621;SDS011;9958;33.196;-97.114;2023-02-28T08:56:58;10.90;;;1.63;;
19621;SDS011;9958;33.196;-97.114;2023-02-28T08:59:27;8.00;;;1.23;;
19621;SDS011;9958;33.196;-97.114;2023-02-28T09:01:56;9.45;;;1.90;;
19621;SDS011;9958;33.196;-97.114;2023-02-28T09:04:24;5.28;;;1.60;;
19621;SDS011;9958;33.196;-97.114;2023-02-28T09:06:56;7.90;;;1.25;;
19621;SDS011;9958;33.196;-97.114;2023-02-28T09:09:24;6.30;;;1.15;;
19621;SDS011;9958;33.196;-97.114;2023-02-28T09:11:52;11.82;;;1.73;;
19621;SDS011;9958;33.196;-97.114;2023-02-28T09:14:24;5.07;;;1.20;;
19621;SDS011;9958;33.196;-97.114;2023-02-28T09:16:53;13.35;;;1.40;;
19621;SDS011;9958;33.196;-97.114;2023-02-28T09:19:21;7.15;;;1.30;;
19621;SDS011;9958;33.196;-97.114;2023-02-28T09:21:49;6.72;;;1.25;;
19621;SDS011;9958;33.196;-97.114;2023-02-28T09:24:18;6.47;;;1.35;;
19621;SDS011;9958;33.196;-97.114;2023-02-28T09:26:46;7.70;;;1.20;;
19621;SDS011;9958;33.196;-97.114;2023-02-28T09:29:14;2.97;;;1.30;;
19621;SDS011;9958;33.196;-97.114;2023-02-28T09:31:44;1.45;;;0.93;;
19621;SDS011;9958;33.196;-97.114;2023-02-28T09:34:12;18.73;;;1.85;;
19621;SDS011;9958;33.196;-97.114;2023-02-28T09:36:42;2.55;;;1.25;;
19621;SDS011;9958;33.196;-97.114;2023-02-28T09:39:11;2.80;;;1.10;;
19621;SDS011;9958;33.196;-97.114;2023-02-28T09:41:41;6.38;;;1.00;;
19621;SDS011;9958;33.196;-97.114;2023-02-28T09:44:15;5.05;;;0.93;;
19621;SDS011;9958;33.196;-97.114;2023-02-28T09:46:49;4.88;;;1.40;;
19621;SDS011;9958;33.196;-97.114;2023-02-28T09:49:23;1.55;;;1.00;;
19621;SDS011;9958;33.196;-97.114;2023-02-28T09:51:58;2.50;;;0.98;;
19621;SDS011;9958;33.196;-97.114;2023-02-28T09:54:29;4.57;;;0.75;;
19621;SDS011;9958;33.196;-97.114;2023-02-28T09:56:59;10.25;;;0.73;;
19621;SDS011;9958;33.196;-97.114;2023-02-28T09:59:36;2.28;;;0.75;;
19621;SDS011;9958;33.196;-97.114;2023-02-28T10:02:26;1.48;;;0.80;;
19621;SDS011;9958;33.196;-97.114;2023-02-28T10:05:13;3.90;;;0.90;;
19621;SDS011;9958;33.196;-97.114;2023-02-28T10:07:50;4.30;;;1.08;;
19621;SDS011;9958;33.196;-97.114;2023-02-28T10:10:25;2.50;;;0.80;;
19621;SDS011;9958;33.196;-97.114;2023-02-28T10:12:57;3.88;;;0.70;;
19621;SDS011;9958;33.196;-97.114;2023-02-28T10:15:29;2.72;;;0.80;;
19621;SDS011;9958;33.196;-97.114;2023-02-28T10:18:01;2.15;;;0.93;;
19621;SDS011;9958;33.196;-97.114;2023-02-28T10:20:32;1.50;;;0.60;;
19621;SDS011;9958;33.196;-97.114;2023-02-28T10:23:03;7.60;;;1.52;;
19621;SDS011;9958;33.196;-97.114;2023-02-28T10:25:37;2.13;;;1.10;;
19621;SDS011;9958;33.196;-97.114;2023-02-28T10:28:09;2.88;;;0.68;;
19621;SDS011;9958;33.196;-97.114;2023-02-28T10:30:39;0.70;;;0.65;;
19621;SDS011;9958;33.196;-97.114;2023-02-28T10:33:17;2.67;;;1.05;;
19621;SDS011;9958;33.196;-97.114;2023-02-28T10:35:55;0.88;;;0.70;;
19621;SDS011;9958;33.196;-97.114;2023-02-28T10:38:25;1.25;;;0.82;;
19621;SDS011;9958;33.196;-97.114;2023-02-28T10:41:03;1.33;;;0.82;;
19621;SDS011;9958;33.196;-97.114;2023-02-28T10:43:32;4.53;;;0.60;;
19621;SDS011;9958;33.196;-97.114;2023-02-28T10:46:02;1.02;;;0.77;;
19621;SDS011;9958;33.196;-97.114;2023-02-28T10:48:34;2.78;;;1.00;;
19621;SDS011;9958;33.196;-97.114;2023-02-28T10:51:05;2.80;;;0.88;;
19621;SDS011;9958;33.196;-97.114;2023-02-28T10:53:40;1.25;;;0.50;;
19621;SDS011;9958;33.196;-97.114;2023-02-28T10:56:16;3.60;;;0.80;;
19621;SDS011;9958;33.196;-97.114;2023-02-28T10:58:48;4.43;;;0.90;;
19621;SDS011;9958;33.196;-97.114;2023-02-28T11:01:19;2.33;;;0.68;;
19621;SDS011;9958;33.196;-97.114;2023-02-28T11:03:51;1.60;;;0.47;;
19621;SDS011;9958;33.196;-97.114;2023-02-28T11:06:20;3.45;;;1.33;;
19621;SDS011;9958;33.196;-97.114;2023-02-28T11:08:51;3.03;;;0.70;;
19621;SDS011;9958;33.196;-97.114;2023-02-28T11:11:21;6.30;;;1.05;;
19621;SDS011;9958;33.196;-97.114;2023-02-28T11:13:52;1.42;;;0.80;;
19621;SDS011;9958;33.196;-97.114;2023-02-28T11:16:30;4.82;;;0.50;;
19621;SDS011;9958;33.196;-97.114;2023-02-28T11:19:02;0.68;;;0.60;;
19621;SDS011;9958;33.196;-97.114;2023-02-28T11:21:34;2.10;;;0.73;;
19621;SDS011;9958;33.196;-97.114;2023-02-28T11:24:06;2.88;;;0.75;;
19621;SDS011;9958;33.196;-97.114;2023-02-28T11:26:48;0.40;;;0.40;;
19621;SDS011;9958;33.196;-97.114;2023-02-28T11:29:18;0.40;;;0.40;;
19621;SDS011;9958;33.196;-97.114;2023-02-28T11:34:40;3.30;;;0.82;;
19621;SDS011;9958;33.196;-97.114;2023-02-28T11:37:11;2.38;;;0.70;;
19621;SDS011;9958;33.196;-97.114;2023-02-28T11:39:41;2.20;;;0.70;;
19621;SDS011;9958;33.196;-97.114;2023-02-28T11:45:12;2.42;;;0.57;;
19621;SDS011;9958;33.196;-97.114;2023-02-28T11:47:48;2.08;;;0.60;;
19621;SDS011;9958;33.196;-97.114;2023-02-28T11:50:42;1.73;;;0.57;;
19621;SDS011;9958;33.196;-97.114;2023-02-28T11:53:19;1.98;;;0.73;;
19621;SDS011;9958;33.196;-97.114;2023-02-28T11:55:54;1.08;;;0.47;;
19621;SDS011;9958;33.196;-97.114;2023-02-28T11:58:33;0.30;;;0.30;;
19621;SDS011;9958;33.196;-97.114;2023-02-28T12:01:15;1.10;;;0.63;;
19621;SDS011;9958;33.196;-97.114;2023-02-28T12:03:57;1.67;;;1.00;;
19621;SDS011;9958;33.196;-97.114;2023-02-28T12:06:38;0.77;;;0.77;;
19621;SDS011;9958;33.196;-97.114;2023-02-28T12:09:15;1.95;;;1.30;;
19621;SDS011;9958;33.196;-97.114;2023-02-28T12:12:02;1.77;;;1.10;;
19621;SDS011;9958;33.196;-97.114;2023-02-28T12:14:47;1.23;;;0.95;;
19621;SDS011;9958;33.196;-97.114;2023-02-28T12:17:27;0.68;;;0.68;;
19621;SDS011;9958;33.196;-97.114;2023-02-28T12:20:10;1.20;;;1.00;;
19621;SDS011;9958;33.196;-97.114;2023-02-28T12:22:52;1.65;;;0.65;;
19621;SDS011;9958;33.196;-97.114;2023-02-28T12:25:48;1.40;;;0.73;;
19621;SDS011;9958;33.196;-97.114;2023-02-28T12:28:23;1.15;;;0.68;;
19621;SDS011;9958;33.196;-97.114;2023-02-28T12:30:57;1.10;;;0.57;;
19621;SDS011;9958;33.196;-97.114;2023-02-28T12:33:31;0.40;;;0.40;;
19621;SDS011;9958;33.196;-97.114;2023-02-28T12:36:04;2.25;;;0.45;;
19621;SDS011;9958;33.196;-97.114;2023-02-28T12:38:40;0.82;;;0.40;;
19621;SDS011;9958;33.196;-97.114;2023-02-28T12:41:12;0.47;;;0.47;;
19621;SDS011;9958;33.196;-97.114;2023-02-28T12:43:43;4.13;;;0.47;;
19621;SDS011;9958;33.196;-97.114;2023-02-28T12:46:16;2.00;;;0.50;;
19621;SDS011;9958;33.196;-97.114;2023-02-28T12:48:49;1.67;;;0.60;;
19621;SDS011;9958;33.196;-97.114;2023-02-28T12:51:23;1.63;;;0.60;;
19621;SDS011;9958;33.196;-97.114;2023-02-28T12:53:57;0.50;;;0.50;;
19621;SDS011;9958;33.196;-97.114;2023-02-28T12:56:36;5.05;;;0.82;;
19621;SDS011;9958;33.196;-97.114;2023-02-28T12:59:12;2.40;;;1.00;;
19621;SDS011;9958;33.196;-97.114;2023-02-28T13:08:09;0.68;;;0.57;;
19621;SDS011;9958;33.196;-97.114;2023-02-28T13:10:59;0.75;;;0.63;;
19621;SDS011;9958;33.196;-97.114;2023-02-28T13:13:28;4.20;;;0.95;;
19621;SDS011;9958;33.196;-97.114;2023-02-28T13:16:04;0.95;;;0.60;;
19621;SDS011;9958;33.196;-97.114;2023-02-28T13:18:34;0.80;;;0.60;;
19621;SDS011;9958;33.196;-97.114;2023-02-28T13:21:05;0.52;;;0.50;;
19621;SDS011;9958;33.196;-97.114;2023-02-28T13:23:38;2.63;;;1.02;;
19621;SDS011;9958;33.196;-97.114;2023-02-28T13:26:31;5.72;;;1.30;;
19621;SDS011;9958;33.196;-97.114;2023-02-28T13:29:39;3.78;;;1.48;;
19621;SDS011;9958;33.196;-97.114;2023-02-28T13:32:19;3.38;;;1.20;;
19621;SDS011;9958;33.196;-97.114;2023-02-28T13:44:23;1.42;;;1.02;;
19621;SDS011;9958;33.196;-97.114;2023-02-28T13:53:15;0.38;;;0.38;;
19621;SDS011;9958;33.196;-97.114;2023-02-28T13:56:07;2.75;;;0.90;;
19621;SDS011;9958;33.196;-97.114;2023-02-28T13:58:52;2.50;;;0.63;;
19621;SDS011;9958;33.196;-97.114;2023-02-28T14:01:29;1.63;;;0.80;;
19621;SDS011;9958;33.196;-97.114;2023-02-28T14:07:18;2.38;;;0.80;;
19621;SDS011;9958;33.196;-97.114;2023-02-28T14:09:53;1.67;;;0.70;;
19621;SDS011;9958;33.196;-97.114;2023-02-28T14:15:38;5.10;;;0.65;;
19621;SDS011;9958;33.196;-97.114;2023-02-28T14:18:24;0.98;;;0.50;;
19621;SDS011;9958;33.196;-97.114;2023-02-28T14:21:01;1.02;;;0.40;;
19621;SDS011;9958;33.196;-97.114;2023-02-28T14:23:42;4.03;;;0.70;;
19621;SDS011;9958;33.196;-97.114;2023-02-28T14:26:25;1.38;;;0.52;;
19621;SDS011;9958;33.196;-97.114;2023-02-28T14:29:16;2.20;;;0.60;;
19621;SDS011;9958;33.196;-97.114;2023-02-28T14:32:06;1.45;;;0.30;;
19621;SDS011;9958;33.196;-97.114;2023-02-28T14:34:45;0.63;;;0.60;;
19621;SDS011;9958;33.196;-97.114;2023-02-28T14:37:20;1.10;;;0.55;;
19621;SDS011;9958;33.196;-97.114;2023-02-28T14:39:53;2.45;;;0.45;;
19621;SDS011;9958;33.196;-97.114;2023-02-28T14:42:29;4.10;;;0.43;;
19621;SDS011;9958;33.196;-97.114;2023-02-28T14:45:00;1.05;;;0.32;;
19621;SDS011;9958;33.196;-97.114;2023-02-28T14:47:30;2.78;;;0.38;;
19621;SDS011;9958;33.196;-97.114;2023-02-28T14:50:01;2.17;;;0.30;;
19621;SDS011;9958;33.196;-97.114;2023-02-28T14:52:31;3.40;;;0.60;;
19621;SDS011;9958;33.196;-97.114;2023-02-28T14:55:03;5.50;;;1.00;;
19621;SDS011;9958;33.196;-97.114;2023-02-28T14:57:39;4.85;;;0.80;;
19621;SDS011;9958;33.196;-97.114;2023-02-28T15:00:12;1.85;;;1.02;;
19621;SDS011;9958;33.196;-97.114;2023-02-28T15:02:44;1.05;;;0.57;;
19621;SDS011;9958;33.196;-97.114;2023-02-28T15:05:21;3.10;;;0.70;;
19621;SDS011;9958;33.196;-97.114;2023-02-28T15:08:00;4.88;;;0.82;;
19621;SDS011;9958;33.196;-97.114;2023-02-28T15:10:32;1.77;;;0.50;;
19621;SDS011;9958;33.196;-97.114;2023-02-28T15:13:01;3.13;;;0.65;;
19621;SDS011;9958;33.196;-97.114;2023-02-28T15:15:39;3.42;;;0.80;;
19621;SDS011;9958;33.196;-97.114;2023-02-28T15:18:16;3.50;;;0.80;;
19621;SDS011;9958;33.196;-97.114;2023-02-28T15:20:55;1.10;;;0.40;;
19621;SDS011;9958;33.196;-97.114;2023-02-28T15:23:24;1.20;;;0.45;;
19621;SDS011;9958;33.196;-97.114;2023-02-28T15:25:53;0.73;;;0.38;;
19621;SDS011;9958;33.196;-97.114;2023-02-28T15:28:22;3.75;;;0.65;;
19621;SDS011;9958;33.196;-97.114;2023-02-28T15:30:52;0.57;;;0.40;;
19621;SDS011;9958;33.196;-97.114;2023-02-28T15:33:23;0.88;;;0.73;;
19621;SDS011;9958;33.196;-97.114;2023-02-28T15:36:05;1.13;;;0.70;;
19621;SDS011;9958;33.196;-97.114;2023-02-28T15:38:38;2.78;;;0.43;;
19621;SDS011;9958;33.196;-97.114;2023-02-28T15:41:20;0.85;;;0.60;;